Flight Track Log - Related Links

Times and Time Zones

All times are in EDT time to prevent confusion due to time zone crossing. See the N100MJ flight status page for this flight to view local times or setup timezone preferences in your user account.

Time Position Orientation Groundspeed Altitude Reporting Facility
EDT Latitude Longitude Course Direction KTS MPH feet Rate Location/Type
Tue 02:47:16 PM 38.5892 -76.0619 221° Southwest 158 182 5,200  Level Washington Center
Tue 02:48:24 PM 38.5536 -76.1014 221° Southwest 163 188 4,800 -328 Descending Washington Center
Tue 02:49:24 PM 38.5200 -76.1411 223° Southwest 164 189 4,500 -149 Descending Washington Center
Tue 02:50:25 PM 38.4844 -76.1831 223° Southwest 161 185 4,500  Level Washington Center
Tue 02:51:25 PM 38.4508 -76.2200 221° Southwest 155 178 4,500  Level Washington Center
Tue 02:52:26 PM 38.4217 -76.2569 225° Southwest 157 181 4,500  Level Washington Center
Tue 02:53:26 PM 38.3858 -76.2936 219° Southwest 157 181 4,500  Level Washington Center
Tue 02:54:33 PM 38.3503 -76.3331 221° Southwest 157 181 4,500  Level Washington Center
Tue 02:55:34 PM 38.3167 -76.3725 223° Southwest 156 180 4,500  Level Washington Center
Tue 02:56:41 PM 38.2831 -76.4144 224° Southwest 157 181 4,500  Level Washington Center
Tue 02:57:41 PM 38.2533 -76.4589 230° Southwest 153 176 4,500  Level Washington Center
Tue 02:58:42 PM 38.2239 -76.4983 226° Southwest 154 177 4,500  Level Washington Center
Tue 02:59:45 PM 38.1967 -76.5350 227° Southwest 154 177 4,500  Level Washington Center
Tue 03:00:46 PM 38.1669 -76.5794 230° Southwest 155 178 4,500 -49 Level Washington Center
Tue 03:01:47 PM 38.1375 -76.6186 226° Southwest 153 176 4,400  Descending Washington Center
Tue 03:02:45 PM 38.1081 -76.6578 226° Southwest 152 175 4,500 49 Climbing Washington Center
Tue 03:03:49 PM 38.0783 -76.6969 226° Southwest 155 178 4,500  Level Washington Center
Tue 03:04:49 PM 38.0489 -76.7389 228° Southwest 154 177 4,500  Level Washington Center
Tue 03:05:50 PM 38.0153 -76.7725 218° Southwest 155 178 4,500  Level Washington Center
Tue 03:06:44 PM 37.9836 -76.8036 218° Southwest 156 180 4,500  Level Washington Center
Tue 03:08:17 PM 37.9333 -76.8500 216° Southwest 159 183 4,500  Level Potomac TRACON
Tue 03:09:17 PM 37.9000 -76.8833 218° Southwest 162 186 4,500  Level Potomac TRACON
Tue 03:10:17 PM 37.8667 -76.9167 218° Southwest 157 181 4,500  Level Potomac TRACON
Tue 03:11:17 PM 37.8167 -76.9500 208° Southwest 156 180 4,500  Level Potomac TRACON
Tue 03:12:23 PM 37.7833 -76.9833 218° Southwest 158 182 4,500  Level Potomac TRACON
Tue 03:13:23 PM 37.7500 -77.0333 230° Southwest 157 181 4,500  Level Potomac TRACON
Tue 03:14:23 PM 37.7167 -77.0667 218° Southwest 156 180 4,500  Level Potomac TRACON
Tue 03:15:29 PM 37.6833 -77.1000 218° Southwest 158 182 4,500  Level Potomac TRACON
Tue 03:16:29 PM 37.6500 -77.1333 218° Southwest 157 181 4,500  Level Potomac TRACON
Tue 03:17:35 PM 37.6167 -77.1667 218° Southwest 156 180 4,500  Level Potomac TRACON
Tue 03:18:35 PM 37.5667 -77.2000 208° Southwest 156 180 4,500  Level Potomac TRACON
Tue 03:19:35 PM 37.5333 -77.2333 218° Southwest 153 176 4,500  Level Potomac TRACON
Tue 03:20:36 PM 37.5000 -77.2667 218° Southwest 158 182 4,500  Level Potomac TRACON
Tue 03:21:41 PM 37.4667 -77.3000 218° Southwest 163 188 4,500  Level Potomac TRACON
Tue 03:22:42 PM 37.4333 -77.3333 218° Southwest 154 177 4,500 -50 Level Potomac TRACON
Tue 03:23:42 PM 37.4000 -77.3667 218° Southwest 152 175 4,400  Descending Potomac TRACON
Tue 03:24:42 PM 37.3667 -77.4000 218° Southwest 153 176 4,500 50 Climbing Potomac TRACON
Tue 03:25:42 PM 37.3333 -77.4333 218° Southwest 158 182 4,500 -50 Level Potomac TRACON
Tue 03:26:42 PM 37.3000 -77.4667 219° Southwest 152 175 4,400  Descending Potomac TRACON
Tue 03:27:42 PM 37.2667 -77.5000 219° Southwest 150 173 4,500 56 Climbing Potomac TRACON
Tue 03:28:30 PM 37.2422 -77.5225 216° Southwest 152 175 4,500  Level Washington Center
Tue 03:29:27 PM 37.2125 -77.5531 219° Southwest 146 168 4,500 -8 Level Washington Center
Tue 03:31:00 PM 37.1568 -77.5940 210° Southwest  Level FlightAware Approximate
Tue 03:38:00 PM 36.9096 -77.7872 217° Southwest  Level FlightAware Approximate
Tue 03:39:00 PM 36.8764 -77.8186 217° Southwest  Level FlightAware Approximate
Tue 03:40:00 PM 36.8431 -77.8500 217° Southwest  Level FlightAware Approximate
Tue 03:40:27 PM 36.8408 -77.9094 217° Southwest 161 185 4,400  Level Washington Center
Tue 03:41:00 PM 36.8098 -77.8813 217° Southwest  Level FlightAware Approximate
Tue 03:41:28 PM 36.8069 -77.9397 216° Southwest 161 185 4,400  Level Washington Center
Tue 03:42:00 PM 36.7765 -77.9126 217° Southwest  Level FlightAware Approximate
Tue 03:43:00 PM 36.7529 -77.9824 212° Southwest  Level FlightAware Approximate
Tue 03:43:00 PM 36.7432 -77.9439 217° Southwest  Level FlightAware Approximate
Tue 03:44:00 PM 36.7099 -77.9751 217° Southwest  Level FlightAware Approximate
Tue 03:45:00 PM 36.6766 -78.0064 217° Southwest  Level FlightAware Approximate
Tue 03:46:29 PM 36.6453 -78.0953 212° Southwest 155 178 4,400  Level Washington Center
Tue 03:47:35 PM 36.6047 -78.1353 218° Southwest 148 170 4,500  Climbing Washington Center
Tue 03:48:27 PM 36.5794 -78.1553 212° Southwest 155 178 4,400  Descending Washington Center
Tue 03:48:42 PM 36.5728 -78.1678 236° Southwest 145 167 4,500  Climbing Washington Center
Tue 03:49:27 PM 36.5494 -78.1903 218° Southwest 155 178 4,400  Descending Washington Center
Tue 03:49:45 PM 36.5408 -78.1978 215° Southwest 144 166 4,500  Climbing Washington Center
Tue 03:50:00 PM 36.5062 -78.1763 212° Southwest  Level FlightAware Approximate
Tue 03:50:28 PM 36.5153 -78.2178 212° Southwest 155 178 4,400  Level Washington Center
Tue 03:50:46 PM 36.5047 -78.2278 217° Southwest 145 167 4,500 83 Climbing Washington Center
Tue 03:51:40 PM 36.4769 -78.2550 218° Southwest 146 168 4,500 -59 Level Washington Center
Tue 03:52:28 PM 36.4494 -78.2800 216° Southwest 155 178 4,400  Descending Washington Center
Tue 03:52:46 PM 36.4386 -78.2900 217° Southwest 148 170 4,500 91 Climbing Washington Center
Tue 03:53:34 PM 36.4150 -78.3150 220° Southwest 148 170 4,500  Level Washington Center
Tue 03:54:29 PM 36.3853 -78.3422 216° Southwest 148 170 4,500 -52 Level Washington Center
Tue 03:55:30 PM 36.3575 -78.3697 219° Southwest 153 176 4,400 -51 Descending Washington Center
Tue 03:56:27 PM 36.3253 -78.4097 225° Southwest 143 165 4,400  Level Washington Center
Tue 03:57:28 PM 36.2994 -78.4425 226° Southwest 143 165 4,400 94 Level Washington Center
Tue 03:57:31 PM 36.2953 -78.4475 224° Southwest 147 169 4,500 86 Climbing Washington Center
Tue 03:58:38 PM 36.2631 -78.4875 225° Southwest 147 169 4,500  Level Washington Center
Tue 03:59:45 PM 36.2328 -78.5275 227° Southwest 147 169 4,500  Level Washington Center
Tue 04:00:43 PM 36.2025 -78.5650 225° Southwest 146 168 4,500  Level Washington Center
Tue 04:01:44 PM 36.1725 -78.6025 225° Southwest 147 169 4,500  Level Washington Center
Tue 04:02:45 PM 36.1464 -78.6400 229° Southwest 148 170 4,500  Level Washington Center
Tue 04:03:45 PM 36.1164 -78.6750 223° Southwest 147 169 4,500  Level Washington Center
Tue 04:04:51 PM 36.0883 -78.7150 229° Southwest 148 170 4,500  Level Washington Center
Tue 04:05:55 PM 36.0558 -78.7547 225° Southwest 149 171 4,500  Level Washington Center
Tue 04:06:59 PM 36.0278 -78.7947 229° Southwest 146 168 4,500  Level Washington Center
Tue 04:07:53 PM 36.0017 -78.8297 227° Southwest 147 169 4,500  Level Washington Center
Tue 04:08:51 PM 35.9758 -78.8644 227° Southwest 147 169 4,500  Level Washington Center
Tue 04:09:57 PM 35.9456 -78.9017 225° Southwest 148 170 4,500  Level Washington Center
Tue 04:11:04 PM 35.9150 -78.9467 230° Southwest 148 170 4,500  Level Washington Center
Tue 04:12:04 PM 35.8869 -78.9839 227° Southwest 145 167 4,500  Level Washington Center
Tue 04:13:17 PM 35.8364 -78.9944 190° South 159 183 4,500  Level Washington Center
Tue 04:13:47 PM 35.8156 -78.9986 189° South 157 181 4,500  Level Washington Center
Tue 04:15:06 PM 35.7608 -79.0169 195° South 152 175 4,500  Level Washington Center
Tue 04:16:00 PM 35.7269 -79.0333 201° Southwest 152 175 4,500  Level Washington Center
Tue 04:17:00 PM 35.6889 -79.0586 208° Southwest  Level FlightAware Approximate
Tue 04:24:00 PM 35.4248 -79.2398 212° Southwest  Level FlightAware Approximate
Tue 04:25:00 PM 35.3880 -79.2674 211° Southwest  Level FlightAware Approximate
Tue 04:26:00 PM 35.3511 -79.2951 211° Southwest  Level FlightAware Approximate
Tue 04:27:00 PM 35.3142 -79.3228 211° Southwest  Level FlightAware Approximate
Tue 04:28:00 PM 35.2774 -79.3504 211° Southwest  Level FlightAware Approximate
Tue 04:29:00 PM 35.2405 -79.3780 211° Southwest  Level FlightAware Approximate
Tue 04:30:00 PM 35.2333 -79.3833 212° Southwest  Level FlightAware Approximate
Tue 04:31:00 PM 35.2380 -79.3883 212° Southwest  Level Estimated
Tue 04:32:00 PM 35.2333 -79.3833 212° Southwest  Level FlightAware Approximate
Tue 04:33:00 PM 35.2380 -79.3883 212° Southwest  Level Estimated
Tue 04:34:00 PM 35.2333 -79.3833 212° Southwest  Level FlightAware Approximate
Tue 04:35:00 PM 35.2380 -79.3883 212° Southwest  Level Estimated
Tue 04:36:00 PM 35.2333 -79.3833 212° Southwest  Level FlightAware Approximate
Tue 04:37:00 PM 35.2380 -79.3883 212° Southwest  Level Estimated
Tue 04:38:00 PM 35.2333 -79.3833 212° Southwest  Level FlightAware Approximate

Login

Don't have an account? Register now (free) for customized features, flight alerts, and more!